Time;durP1;ratioP1;P1;durP2;ratioP2;P2;SDS_P1;SDS_P2;PMS_P1;PMS_P2;Temp;Humidity;BMP_temperature;BMP_pressure;BME280_temperature;BME280_humidity;BME280_pressure;Samples;Min_cycle;Max_cycle;Signal;HPM_P1;HPM_P2
2021/04/22 00:02:10;;;;;;;8.57;6.65;;;6.50;99.90;;;;;;5005732;28;20098;-76
2021/04/22 00:04:36;;;;;;;10.02;6.50;;;6.40;99.90;;;;;;5003765;28;20066;-76
2021/04/22 00:07:02;;;;;;;8.50;6.15;;;6.20;99.90;;;;;;5009220;28;20082;-76
2021/04/22 00:09:27;;;;;;;11.85;7.47;;;5.90;99.90;;;;;;5005068;28;20166;-76
2021/04/22 00:11:53;;;;;;;10.55;7.97;;;5.90;99.90;;;;;;5005799;28;20082;-76
2021/04/22 00:14:18;;;;;;;11.45;7.75;;;5.80;99.90;;;;;;5009369;28;20074;-75
2021/04/22 00:16:44;;;;;;;11.00;7.53;;;6.10;99.90;;;;;;5001697;28;20209;-76
2021/04/22 00:19:09;;;;;;;11.27;7.70;;;6.10;99.90;;;;;;4998347;28;20079;-76
2021/04/22 00:21:35;;;;;;;9.93;7.30;;;6.20;99.90;;;;;;4996623;28;20090;-76
2021/04/22 00:24:01;;;;;;;8.80;7.47;;;6.00;99.90;;;;;;5006396;28;20073;-76
2021/04/22 00:26:27;;;;;;;9.68;6.85;;;6.00;99.90;;;;;;5006059;28;20090;-76
2021/04/22 00:28:53;;;;;;;9.00;7.43;;;5.90;99.90;;;;;;5002024;28;20077;-76
2021/04/22 00:31:19;;;;;;;9.80;7.03;;;6.10;99.90;;;;;;5008485;28;20554;-76
2021/04/22 00:33:44;;;;;;;9.40;7.10;;;6.30;99.90;;;;;;5008722;28;20078;-76
2021/04/22 00:36:10;;;;;;;11.10;7.57;;;6.50;99.90;;;;;;5001585;28;20095;-75
2021/04/22 00:38:35;;;;;;;9.73;6.70;;;6.70;99.90;;;;;;4997500;28;20082;-76
2021/04/22 00:41:01;;;;;;;9.38;6.22;;;6.60;99.90;;;;;;4998090;28;20115;-76
2021/04/22 00:43:27;;;;;;;11.13;7.82;;;6.60;99.90;;;;;;4987608;28;20074;-76
2021/04/22 00:45:53;;;;;;;9.05;6.85;;;6.50;99.90;;;;;;4997349;28;20090;-75
2021/04/22 00:48:24;;;;;;;9.05;6.72;;;6.40;99.90;;;;;;4994287;28;20702;-76
2021/04/22 00:50:51;;;;;;;8.88;6.38;;;6.40;99.90;;;;;;4994180;28;20450;-76
2021/04/22 00:53:17;;;;;;;7.75;5.93;;;6.40;99.90;;;;;;4994320;28;20454;-76
2021/04/22 00:55:43;;;;;;;9.18;6.82;;;6.50;99.90;;;;;;5004007;28;20158;-75
2021/04/22 00:58:09;;;;;;;11.23;7.80;;;6.40;99.90;;;;;;4995017;28;20137;-76
2021/04/22 01:00:50;;;;;;;10.30;6.90;;;6.50;99.90;;;;;;5000742;28;20827;-76
2021/04/22 01:03:16;;;;;;;12.13;6.88;;;6.50;99.90;;;;;;4998149;28;20547;-75
2021/04/22 01:05:47;;;;;;;9.02;6.40;;;6.40;99.90;;;;;;5001037;28;20122;-76
2021/04/22 01:08:14;;;;;;;10.50;6.63;;;6.60;99.90;;;;;;5001511;28;20066;-75
2021/04/22 01:10:40;;;;;;;9.35;6.50;;;6.40;99.90;;;;;;4995599;28;20082;-75
2021/04/22 01:13:06;;;;;;;10.82;8.38;;;6.50;99.90;;;;;;4993652;28;20074;-75
2021/04/22 01:15:32;;;;;;;13.63;9.25;;;6.60;99.90;;;;;;4996801;28;20098;-76
2021/04/22 01:17:59;;;;;;;10.15;7.28;;;6.80;99.90;;;;;;4986221;28;20086;-76
2021/04/22 01:20:25;;;;;;;12.90;8.80;;;6.60;99.90;;;;;;4996146;28;20080;-76
2021/04/22 01:22:52;;;;;;;9.85;7.05;;;6.60;99.90;;;;;;4992121;28;20110;-77
2021/04/22 01:25:21;;;;;;;11.52;6.95;;;6.70;99.90;;;;;;4996390;28;20775;-75
2021/04/22 01:27:46;;;;;;;12.18;9.18;;;6.80;99.90;;;;;;5004412;28;20074;-76
2021/04/22 01:30:19;;;;;;;24.63;13.18;;;6.90;99.90;;;;;;4994402;28;21486;-76
2021/04/22 01:32:45;;;;;;;20.10;11.18;;;6.90;99.90;;;;;;4999157;28;20493;-76
2021/04/22 01:35:14;;;;;;;21.00;12.68;;;7.00;99.90;;;;;;4996022;28;20098;-76
2021/04/22 01:37:41;;;;;;;25.90;14.55;;;7.10;99.90;;;;;;5004787;28;20132;-76
2021/04/22 01:40:08;;;;;;;19.83;11.32;;;7.20;99.90;;;;;;5006362;28;20124;-76
2021/04/22 01:42:33;;;;;;;12.20;8.95;;;7.30;99.90;;;;;;4999404;28;20178;-76
2021/04/22 01:44:59;;;;;;;9.57;7.35;;;7.30;99.90;;;;;;4990008;28;20176;-76
2021/04/22 01:47:25;;;;;;;11.05;7.90;;;7.30;99.90;;;;;;5001870;28;20112;-77
2021/04/22 01:49:51;;;;;;;11.63;8.60;;;7.20;99.90;;;;;;5003935;28;20075;-76
2021/04/22 01:52:16;;;;;;;11.90;8.70;;;7.00;99.90;;;;;;4996687;28;20124;-76
2021/04/22 01:54:42;;;;;;;15.70;10.10;;;6.90;99.90;;;;;;4998809;28;20078;-76
2021/04/22 01:57:08;;;;;;;14.10;9.02;;;7.00;99.90;;;;;;5009169;28;20161;-76
2021/04/22 01:59:33;;;;;;;11.98;8.90;;;7.10;99.90;;;;;;5009170;28;20680;-76
2021/04/22 02:01:59;;;;;;;16.65;8.52;;;7.20;99.90;;;;;;5005064;28;20466;-76
2021/04/22 02:04:25;;;;;;;11.68;8.65;;;7.10;99.90;;;;;;4999214;28;20074;-76
2021/04/22 02:06:50;;;;;;;11.52;8.05;;;7.00;99.90;;;;;;5004931;28;20585;-75
2021/04/22 02:09:16;;;;;;;11.82;8.57;;;6.70;99.90;;;;;;5002328;28;20520;-76
2021/04/22 02:11:41;;;;;;;11.73;8.50;;;6.80;99.90;;;;;;5005253;28;20590;-76
2021/04/22 02:14:07;;;;;;;11.57;8.48;;;6.90;99.90;;;;;;5004493;28;20144;-76
2021/04/22 02:16:32;;;;;;;13.13;7.88;;;6.90;99.90;;;;;;4993989;28;20099;-76
2021/04/22 02:18:58;;;;;;;12.32;7.82;;;6.80;99.90;;;;;;5005557;28;20610;-76
2021/04/22 02:21:23;;;;;;;10.60;7.70;;;6.80;99.90;;;;;;5006590;28;20547;-76
2021/04/22 02:23:49;;;;;;;11.77;8.15;;;6.80;99.90;;;;;;5009899;28;20062;-76
2021/04/22 02:26:15;;;;;;;11.80;8.30;;;6.90;99.90;;;;;;5006972;28;20090;-76
2021/04/22 02:28:40;;;;;;;14.70;9.52;;;6.70;99.90;;;;;;5001805;28;20078;-76
2021/04/22 02:31:06;;;;;;;11.30;8.18;;;6.70;99.90;;;;;;5005596;28;20082;-76
2021/04/22 02:33:31;;;;;;;11.95;8.75;;;6.70;99.90;;;;;;5011258;28;20082;-76
2021/04/22 02:35:57;;;;;;;10.75;7.97;;;6.60;99.90;;;;;;4994672;28;20086;-76
2021/04/22 02:38:22;;;;;;;12.40;8.10;;;6.60;99.90;;;;;;5011827;28;20216;-76
2021/04/22 02:40:49;;;;;;;9.35;7.55;;;6.60;99.90;;;;;;4998833;28;20125;-76
2021/04/22 02:43:16;;;;;;;10.13;7.97;;;6.40;99.90;;;;;;4998713;28;20165;-76
2021/04/22 02:45:45;;;;;;;10.50;7.57;;;6.20;99.90;;;;;;5005794;28;20098;-76
2021/04/22 02:48:12;;;;;;;13.27;9.25;;;6.20;99.90;;;;;;5008775;28;20070;-76
2021/04/22 02:50:43;;;;;;;12.48;9.07;;;6.30;99.90;;;;;;5005067;28;20533;-76
2021/04/22 02:53:09;;;;;;;11.00;8.73;;;6.40;99.90;;;;;;5008437;28;20071;-76
2021/04/22 02:55:35;;;;;;;11.65;8.70;;;6.40;99.90;;;;;;5009535;28;20549;-76
2021/04/22 02:58:02;;;;;;;12.60;9.07;;;6.30;99.90;;;;;;5006348;28;20082;-76
2021/04/22 03:00:27;;;;;;;14.05;8.82;;;6.30;99.90;;;;;;5008005;28;20086;-76
2021/04/22 03:02:53;;;;;;;12.77;10.05;;;6.10;99.90;;;;;;5002441;28;20593;-76
2021/04/22 03:05:18;;;;;;;13.13;9.10;;;6.10;99.90;;;;;;5004019;28;20129;-76
2021/04/22 03:07:45;;;;;;;14.45;9.05;;;5.90;99.90;;;;;;5001050;28;20098;-76
2021/04/22 03:10:14;;;;;;;11.07;7.75;;;5.80;99.90;;;;;;5008749;28;20081;-76
2021/04/22 03:12:40;;;;;;;12.70;8.65;;;5.50;99.90;;;;;;5009697;28;20077;-76
2021/04/22 03:15:07;;;;;;;13.68;9.43;;;5.20;99.90;;;;;;5010154;28;20082;-76
2021/04/22 03:17:33;;;;;;;15.30;10.02;;;5.20;99.90;;;;;;5008877;28;20078;-76
2021/04/22 03:19:59;;;;;;;15.23;10.23;;;5.20;99.90;;;;;;5007674;28;20086;-76
2021/04/22 03:22:24;;;;;;;15.30;11.10;;;5.10;99.90;;;;;;5005052;28;20098;-75
2021/04/22 03:24:50;;;;;;;17.65;11.63;;;5.20;99.90;;;;;;4994474;28;20097;-75
2021/04/22 03:27:15;;;;;;;16.77;11.13;;;5.30;99.90;;;;;;5003862;28;20098;-76
2021/04/22 03:29:41;;;;;;;15.00;10.30;;;5.50;99.90;;;;;;4998559;28;20074;-76
2021/04/22 03:32:07;;;;;;;12.93;9.50;;;5.60;99.90;;;;;;5010458;28;20078;-76
2021/04/22 03:34:32;;;;;;;13.38;9.77;;;5.60;99.90;;;;;;4994540;28;20574;-76
2021/04/22 03:36:58;;;;;;;16.25;9.70;;;5.60;99.90;;;;;;5003302;28;20082;-76
2021/04/22 03:39:23;;;;;;;15.02;9.93;;;5.50;99.90;;;;;;4995322;28;20085;-75
2021/04/22 03:41:49;;;;;;;12.00;8.70;;;5.60;99.90;;;;;;5008621;28;20562;-76
2021/04/22 03:44:15;;;;;;;11.80;8.73;;;5.40;99.90;;;;;;5005823;28;20085;-76
2021/04/22 03:46:40;;;;;;;15.50;10.35;;;5.40;99.90;;;;;;4992232;28;20474;-76
2021/04/22 03:49:06;;;;;;;12.48;8.80;;;5.40;99.90;;;;;;5003061;28;20166;-76
2021/04/22 03:51:32;;;;;;;15.05;9.30;;;5.40;99.90;;;;;;5007955;28;20173;-76
2021/04/22 03:53:58;;;;;;;12.32;9.02;;;5.40;99.90;;;;;;5003882;28;20090;-76
2021/04/22 03:56:23;;;;;;;12.52;9.55;;;5.20;99.90;;;;;;5005599;28;20577;-75
2021/04/22 03:58:49;;;;;;;16.35;9.63;;;4.90;99.90;;;;;;5009064;28;20083;-76
2021/04/22 04:01:15;;;;;;;11.70;9.52;;;4.70;99.90;;;;;;5009971;28;20547;-75
2021/04/22 04:03:40;;;;;;;12.98;9.52;;;4.80;99.90;;;;;;5010114;28;20074;-77
2021/04/22 04:06:06;;;;;;;13.38;10.10;;;5.10;99.90;;;;;;5005120;28;20216;-76
2021/04/22 04:08:31;;;;;;;13.25;9.95;;;5.20;99.90;;;;;;4994138;28;20081;-75
2021/04/22 04:10:57;;;;;;;14.60;9.18;;;5.30;99.90;;;;;;5001031;28;20075;-75
2021/04/22 04:13:22;;;;;;;14.30;9.85;;;5.30;99.90;;;;;;5003993;28;20070;-76
2021/04/22 04:15:48;;;;;;;14.80;9.77;;;5.30;99.90;;;;;;5002402;28;20098;-76
2021/04/22 04:18:18;;;;;;;13.05;9.57;;;5.10;99.90;;;;;;4991553;28;20085;-76
2021/04/22 04:20:44;;;;;;;13.73;9.85;;;5.20;99.90;;;;;;5008292;28;20070;-75
2021/04/22 04:23:09;;;;;;;14.98;10.18;;;5.20;99.90;;;;;;4999426;28;20549;-75
2021/04/22 04:25:35;;;;;;;14.80;9.50;;;5.20;99.90;;;;;;5006476;28;20197;-75
2021/04/22 04:28:00;;;;;;;14.88;11.15;;;5.40;99.90;;;;;;5000628;28;20074;-77
2021/04/22 04:30:28;;;;;;;14.07;10.57;;;5.40;99.90;;;;;;5009614;28;20079;-76
2021/04/22 04:32:53;;;;;;;15.63;10.85;;;5.20;99.90;;;;;;5000532;28;20074;-75
2021/04/22 04:35:20;;;;;;;14.05;10.60;;;5.10;99.90;;;;;;5003012;28;20566;-76
2021/04/22 04:37:45;;;;;;;19.38;11.00;;;5.20;99.90;;;;;;5001022;28;20075;-76
2021/04/22 04:40:12;;;;;;;15.88;10.13;;;5.10;99.90;;;;;;4994064;28;20093;-76
2021/04/22 04:42:38;;;;;;;14.48;11.55;;;5.30;99.90;;;;;;4997203;28;20478;-77
2021/04/22 04:45:13;;;;;;;13.23;10.13;;;5.40;99.90;;;;;;5034813;22;20096;-74
2021/04/22 04:47:39;;;;;;;14.70;9.93;;;5.10;99.90;;;;;;4971681;28;20094;-76
2021/04/22 04:50:06;;;;;;;14.75;9.68;;;4.80;99.90;;;;;;4987310;28;20535;-76
2021/04/22 04:52:32;;;;;;;14.38;9.48;;;4.60;99.90;;;;;;4986145;28;20637;-76
2021/04/22 04:54:57;;;;;;;16.40;11.68;;;4.50;99.90;;;;;;4973837;28;20120;-75
2021/04/22 04:57:23;;;;;;;20.15;11.95;;;4.50;99.90;;;;;;4987371;28;20078;-76
2021/04/22 04:59:48;;;;;;;18.25;11.80;;;4.90;99.90;;;;;;4988581;28;20086;-76
2021/04/22 05:02:14;;;;;;;17.48;10.45;;;5.10;99.90;;;;;;4974534;28;20110;-74
2021/04/22 05:04:40;;;;;;;16.63;11.68;;;5.30;99.90;;;;;;4985557;28;20459;-74
2021/04/22 05:07:05;;;;;;;17.40;11.57;;;5.40;99.90;;;;;;4953139;28;20593;-75
2021/04/22 05:09:31;;;;;;;20.15;12.10;;;5.50;99.90;;;;;;4988081;28;20114;-74
2021/04/22 05:11:56;;;;;;;18.30;10.13;;;5.60;99.90;;;;;;4991681;28;20136;-75
2021/04/22 05:14:22;;;;;;;16.38;11.45;;;5.70;99.90;;;;;;4993694;28;20086;-77
2021/04/22 05:16:48;;;;;;;15.90;11.65;;;5.70;99.90;;;;;;4984261;28;20078;-76
2021/04/22 05:19:14;;;;;;;17.10;11.40;;;5.70;99.90;;;;;;4992753;28;20668;-74
2021/04/22 05:21:39;;;;;;;14.70;10.98;;;5.80;99.90;;;;;;4993261;28;20094;-75
2021/04/22 05:24:05;;;;;;;20.45;12.18;;;5.80;99.90;;;;;;4991938;28;20066;-75
2021/04/22 05:26:31;;;;;;;16.88;11.77;;;5.90;99.90;;;;;;4989275;28;20090;-75
2021/04/22 05:28:56;;;;;;;16.42;10.70;;;6.10;99.90;;;;;;4990175;28;20133;-75
2021/04/22 05:31:23;;;;;;;16.67;10.13;;;6.20;99.90;;;;;;4989977;28;20538;-75
2021/04/22 05:33:49;;;;;;;16.38;9.60;;;6.30;99.90;;;;;;4994508;28;20861;-76
2021/04/22 05:36:15;;;;;;;16.70;10.73;;;6.30;99.90;;;;;;4991715;28;20091;-75
2021/04/22 05:38:40;;;;;;;14.63;10.25;;;6.40;99.90;;;;;;4992736;28;20145;-76
2021/04/22 05:41:06;;;;;;;14.82;9.02;;;6.50;99.90;;;;;;4991826;28;20099;-76
2021/04/22 05:43:32;;;;;;;13.75;9.88;;;6.60;99.90;;;;;;5001486;28;20067;-75
2021/04/22 05:45:58;;;;;;;14.13;9.32;;;6.70;99.90;;;;;;4992511;28;20157;-75
2021/04/22 05:48:24;;;;;;;12.43;9.20;;;6.80;99.90;;;;;;4992787;28;20074;-76
2021/04/22 05:50:49;;;;;;;13.63;10.05;;;6.90;99.90;;;;;;4983106;28;20075;-76
2021/04/22 05:53:16;;;;;;;10.88;8.30;;;7.00;99.90;;;;;;4992015;28;20108;-76
2021/04/22 05:55:42;;;;;;;12.88;9.00;;;7.10;99.90;;;;;;4990524;28;20099;-75
2021/04/22 05:58:08;;;;;;;13.30;8.82;;;7.20;99.90;;;;;;4991424;28;20157;-77
2021/04/22 06:00:33;;;;;;;10.85;8.50;;;7.40;99.90;;;;;;4990776;28;20145;-76
2021/04/22 06:02:59;;;;;;;12.57;8.80;;;7.50;99.90;;;;;;4988873;28;20106;-76
2021/04/22 06:05:26;;;;;;;12.65;9.18;;;7.70;99.90;;;;;;4986529;28;20102;-77
2021/04/22 06:07:52;;;;;;;11.88;8.48;;;7.90;99.90;;;;;;4991328;28;20102;-76
2021/04/22 06:10:18;;;;;;;13.30;9.38;;;8.00;99.90;;;;;;4976778;28;21212;-76
2021/04/22 06:12:44;;;;;;;12.18;8.73;;;8.10;99.90;;;;;;4990740;28;20105;-77
2021/04/22 06:15:10;;;;;;;14.77;9.45;;;8.20;99.90;;;;;;4970440;28;20562;-76
2021/04/22 06:17:36;;;;;;;14.90;9.38;;;8.30;99.90;;;;;;4991353;28;20079;-75
2021/04/22 06:20:09;;;;;;;12.02;8.65;;;8.40;99.90;;;;;;4991697;28;20075;-76
2021/04/22 06:22:35;;;;;;;13.82;9.57;;;8.50;99.90;;;;;;4983812;28;20087;-77
2021/04/22 06:25:00;;;;;;;10.90;7.65;;;8.60;99.90;;;;;;4990143;28;20094;-77
2021/04/22 06:27:26;;;;;;;13.15;9.02;;;8.60;99.90;;;;;;4973433;28;20067;-76
2021/04/22 06:29:51;;;;;;;12.15;9.65;;;8.70;99.90;;;;;;4991456;28;20581;-76
2021/04/22 06:32:17;;;;;;;13.57;9.50;;;8.80;99.90;;;;;;4992071;28;20633;-76
2021/04/22 06:34:42;;;;;;;15.30;9.77;;;8.90;99.90;;;;;;4990868;28;20083;-77
2021/04/22 06:37:08;;;;;;;13.45;8.77;;;8.90;99.90;;;;;;4989580;28;20079;-76
2021/04/22 06:39:34;;;;;;;16.42;10.85;;;9.00;99.90;;;;;;4991140;28;20133;-76
2021/04/22 06:41:59;;;;;;;14.27;9.98;;;9.10;99.90;;;;;;4997305;28;20126;-76
2021/04/22 06:44:25;;;;;;;14.60;9.10;;;9.10;99.90;;;;;;4991372;28;20563;-77
2021/04/22 06:46:51;;;;;;;13.07;8.73;;;9.20;99.90;;;;;;4983995;28;20098;-80
2021/04/22 06:49:16;;;;;;;12.57;9.93;;;9.20;99.90;;;;;;4990797;28;20078;-76
2021/04/22 06:51:42;;;;;;;14.38;9.50;;;9.20;99.90;;;;;;4992650;28;20075;-81
2021/04/22 06:54:07;;;;;;;14.07;9.45;;;9.30;99.90;;;;;;4990232;28;20548;-75
2021/04/22 06:56:33;;;;;;;17.17;11.45;;;9.50;99.90;;;;;;4987332;28;20091;-75
2021/04/22 06:59:04;;;;;;;15.07;10.20;;;9.50;99.90;;;;;;4994583;28;20754;-83
2021/04/22 07:01:40;;;;;;;12.00;9.10;;;9.60;99.90;;;;;;5007125;28;20102;-82
2021/04/22 07:04:06;;;;;;;13.18;10.23;;;9.70;99.90;;;;;;4987867;28;20078;-83
2021/04/22 07:06:46;;;;;;;13.25;9.32;;;9.80;99.90;;;;;;4979533;28;20095;-80
2021/04/22 07:09:14;;;;;;;15.27;10.07;;;9.70;99.90;;;;;;4990689;28;20102;-78
2021/04/22 07:11:40;;;;;;;14.93;10.15;;;9.80;99.90;;;;;;4991727;28;20079;-80
2021/04/22 07:14:05;;;;;;;15.80;10.23;;;9.90;99.90;;;;;;4987892;28;20129;-79
2021/04/22 07:16:36;;;;;;;14.50;10.68;;;9.90;99.90;;;;;;4969366;28;20097;-77
2021/04/22 07:19:03;;;;;;;13.45;10.35;;;10.00;99.90;;;;;;4991918;28;20486;-77
2021/04/22 07:21:28;;;;;;;16.77;11.05;;;10.00;99.90;;;;;;4984162;28;20083;-78
2021/04/22 07:23:54;;;;;;;14.20;11.50;;;10.00;99.90;;;;;;4993477;28;20585;-76
2021/04/22 07:26:19;;;;;;;13.38;10.32;;;10.10;99.90;;;;;;4981527;28;20113;-78
2021/04/22 07:28:45;;;;;;;14.88;10.77;;;10.20;99.90;;;;;;4990872;28;20085;-75
2021/04/22 07:31:11;;;;;;;17.42;11.18;;;10.40;99.90;;;;;;4969951;28;20087;-77
2021/04/22 07:33:36;;;;;;;16.27;11.85;;;10.50;99.90;;;;;;4968888;28;20177;-77
2021/04/22 07:36:02;;;;;;;14.85;11.38;;;10.50;99.90;;;;;;4990750;28;20102;-77
2021/04/22 07:38:27;;;;;;;13.70;11.55;;;10.50;99.90;;;;;;4991434;28;20090;-77
2021/04/22 07:40:54;;;;;;;18.17;11.82;;;10.60;99.90;;;;;;4980624;28;20105;-76
2021/04/22 07:43:20;;;;;;;14.18;10.82;;;10.60;99.90;;;;;;4978268;28;20138;-76
2021/04/22 07:45:45;;;;;;;16.00;10.98;;;10.60;99.90;;;;;;4971831;28;20210;-77
2021/04/22 07:48:13;;;;;;;16.13;12.20;;;10.60;99.90;;;;;;4989601;28;20803;-76
2021/04/22 07:50:41;;;;;;;15.93;12.27;;;10.70;99.90;;;;;;4974042;28;20102;-76
2021/04/22 07:53:09;;;;;;;17.65;11.80;;;10.60;99.90;;;;;;4989726;28;20093;-76
2021/04/22 07:55:43;;;;;;;16.63;11.45;;;10.60;99.90;;;;;;4988217;28;20101;-75
2021/04/22 07:58:10;;;;;;;16.50;11.27;;;10.60;99.90;;;;;;4989975;28;20597;-78
2021/04/22 08:00:36;;;;;;;16.90;12.30;;;10.50;99.90;;;;;;4988123;28;20109;-76
2021/04/22 08:03:02;;;;;;;17.08;12.27;;;10.50;99.90;;;;;;4990538;28;20169;-76
2021/04/22 08:05:36;;;;;;;16.52;12.57;;;10.50;99.90;;;;;;4990169;28;20202;-75
2021/04/22 08:08:02;;;;;;;16.38;12.73;;;10.50;99.90;;;;;;4989885;28;20451;-77
2021/04/22 08:10:30;;;;;;;14.70;11.45;;;10.60;99.90;;;;;;4967236;28;20495;-75
2021/04/22 08:12:56;;;;;;;15.07;11.93;;;10.60;99.90;;;;;;4988574;28;20174;-75
2021/04/22 08:15:23;;;;;;;14.40;10.85;;;10.70;99.90;;;;;;4976965;28;20129;-76
2021/04/22 08:17:49;;;;;;;17.10;12.90;;;10.70;99.90;;;;;;4989972;28;20085;-75
2021/04/22 08:20:20;;;;;;;15.90;12.57;;;10.70;99.90;;;;;;4991954;28;20079;-74
2021/04/22 08:22:46;;;;;;;17.65;13.57;;;10.70;99.90;;;;;;4990121;28;20175;-74
2021/04/22 08:25:19;;;;;;;17.00;12.57;;;10.80;99.90;;;;;;4976204;28;20190;-75
2021/04/22 08:27:50;;;;;;;16.05;12.38;;;10.90;99.90;;;;;;4985306;28;20078;-75
2021/04/22 08:30:32;;;;;;;19.95;13.45;;;10.70;99.90;;;;;;4988609;28;20084;-76
2021/04/22 08:33:00;;;;;;;18.95;12.25;;;10.80;99.90;;;;;;4988383;28;20075;-77
2021/04/22 08:35:26;;;;;;;16.13;11.43;;;11.00;99.90;;;;;;4989775;28;20102;-75
2021/04/22 08:37:52;;;;;;;18.42;11.82;;;10.90;99.90;;;;;;4990522;28;20102;-78
2021/04/22 08:40:18;;;;;;;17.00;12.55;;;10.90;99.90;;;;;;4956187;28;20079;-74
2021/04/22 08:42:43;;;;;;;18.10;12.90;;;10.90;99.90;;;;;;4990505;28;20141;-74
2021/04/22 08:45:12;;;;;;;16.08;12.75;;;11.00;99.90;;;;;;4990698;28;20094;-75
2021/04/22 08:47:39;;;;;;;18.10;12.95;;;11.10;99.90;;;;;;4976642;28;20114;-79
2021/04/22 08:50:07;;;;;;;18.42;12.98;;;11.10;99.90;;;;;;4994896;28;20083;-78
2021/04/22 08:52:33;;;;;;;21.35;13.27;;;11.10;99.90;;;;;;4974772;28;20102;-75
2021/04/22 08:54:58;;;;;;;17.08;13.25;;;11.00;99.90;;;;;;4993091;28;20695;-75
2021/04/22 08:57:25;;;;;;;17.92;13.55;;;11.00;99.90;;;;;;4980164;28;20079;-75
2021/04/22 08:59:53;;;;;;;17.90;13.30;;;11.00;99.90;;;;;;4993762;28;20083;-74
2021/04/22 09:02:20;;;;;;;17.65;13.35;;;11.00;99.90;;;;;;4992251;28;20091;-74
2021/04/22 09:04:46;;;;;;;21.42;13.88;;;11.10;99.90;;;;;;4990185;28;20074;-74
2021/04/22 09:07:12;;;;;;;19.15;13.68;;;11.10;99.90;;;;;;4991987;28;20154;-74
2021/04/22 09:09:37;;;;;;;19.85;14.10;;;11.30;99.90;;;;;;4978959;28;20142;-76
2021/04/22 09:12:14;;;;;;;17.10;13.57;;;11.40;99.90;;;;;;4989637;28;20595;-75
2021/04/22 09:14:51;;;;;;;15.27;12.00;;;11.40;99.90;;;;;;4992924;28;20454;-78
2021/04/22 09:17:19;;;;;;;18.10;13.90;;;11.50;99.90;;;;;;4993855;28;20086;-75
2021/04/22 09:19:44;;;;;;;19.42;13.88;;;11.40;99.90;;;;;;4994031;28;20083;-74
2021/04/22 09:22:10;;;;;;;18.50;13.43;;;11.40;99.90;;;;;;4989454;28;20518;-75
2021/04/22 09:24:35;;;;;;;18.45;14.57;;;11.50;99.90;;;;;;4990303;28;20063;-75
2021/04/22 09:27:04;;;;;;;21.73;14.77;;;11.60;99.90;;;;;;4987778;28;20079;-73
2021/04/22 09:29:40;;;;;;;19.02;13.77;;;11.60;99.90;;;;;;4987560;28;20075;-76
2021/04/22 09:32:27;;;;;;;19.67;13.25;;;11.60;99.90;;;;;;4989784;28;20082;-75
2021/04/22 09:34:56;;;;;;;17.90;12.63;;;11.70;99.90;;;;;;4988041;28;20079;-74
2021/04/22 09:37:34;;;;;;;21.42;15.43;;;11.70;99.90;;;;;;4976760;28;20122;-75
2021/04/22 09:40:10;;;;;;;20.20;14.48;;;11.60;99.90;;;;;;4988569;28;20078;-74
2021/04/22 09:42:36;;;;;;;19.92;15.23;;;11.60;99.90;;;;;;4989651;28;20117;-74
2021/04/22 09:45:08;;;;;;;20.70;14.27;;;11.60;99.90;;;;;;4987806;28;20090;-75
2021/04/22 09:47:33;;;;;;;22.95;15.50;;;11.60;99.90;;;;;;4989591;28;20114;-74
2021/04/22 09:50:00;;;;;;;21.70;13.90;;;11.60;99.90;;;;;;4990751;28;20094;-74
2021/04/22 09:52:39;;;;;;;19.38;14.23;;;11.60;99.90;;;;;;4989854;28;20071;-74
2021/04/22 09:55:10;;;;;;;19.45;14.90;;;11.70;99.90;;;;;;4978428;28;20955;-74
2021/04/22 09:57:36;;;;;;;21.98;15.82;;;11.70;99.90;;;;;;4973314;28;20170;-76
2021/04/22 10:00:06;;;;;;;22.85;16.80;;;11.70;99.90;;;;;;4990909;28;20161;-75
2021/04/22 10:02:43;;;;;;;23.80;16.40;;;11.80;99.90;;;;;;4964518;28;20097;-74
2021/04/22 10:05:20;;;;;;;20.95;15.40;;;11.80;99.90;;;;;;4987679;28;20094;-76
2021/04/22 10:07:46;;;;;;;23.10;15.70;;;11.80;99.90;;;;;;4986642;28;20742;-77
2021/04/22 10:10:18;;;;;;;22.30;18.00;;;11.80;99.90;;;;;;4992364;28;20102;-77
2021/04/22 10:12:44;;;;;;;28.27;19.80;;;11.90;99.90;;;;;;4993583;28;20078;-77
2021/04/22 10:15:21;;;;;;;23.00;16.98;;;11.90;99.90;;;;;;4973285;28;20105;-76
2021/04/22 10:17:58;;;;;;;24.80;17.50;;;11.80;99.90;;;;;;4992323;28;20168;-76
2021/04/22 10:20:26;;;;;;;23.33;16.25;;;11.80;99.90;;;;;;4993044;28;20113;-76
2021/04/22 10:22:53;;;;;;;21.27;15.93;;;11.80;99.90;;;;;;4995027;28;20114;-76
2021/04/22 10:25:25;;;;;;;19.98;15.15;;;11.90;99.90;;;;;;4995100;28;20086;-77
2021/04/22 10:27:52;;;;;;;20.98;16.88;;;11.80;99.90;;;;;;4990002;28;20079;-75
2021/04/22 10:30:24;;;;;;;18.98;16.05;;;11.90;99.90;;;;;;4991088;28;20451;-74
2021/04/22 10:32:51;;;;;;;26.95;17.73;;;12.10;99.90;;;;;;4990812;28;20081;-74
2021/04/22 10:35:21;;;;;;;22.30;15.02;;;12.10;99.90;;;;;;5010562;22;20127;-76
2021/04/22 10:37:50;;;;;;;23.23;17.00;;;12.10;99.90;;;;;;4999519;28;21222;-77
2021/04/22 10:40:19;;;;;;;19.67;15.88;;;12.20;99.90;;;;;;5000088;28;20078;-76
2021/04/22 10:42:45;;;;;;;26.48;18.67;;;12.30;99.90;;;;;;4991034;28;20090;-76
2021/04/22 10:45:18;;;;;;;26.48;16.63;;;12.20;99.90;;;;;;4986386;28;20098;-77
2021/04/22 10:47:44;;;;;;;27.65;18.80;;;12.20;99.90;;;;;;5010596;28;20201;-77
2021/04/22 10:50:13;;;;;;;27.13;17.75;;;12.30;99.90;;;;;;5006464;28;20067;-77
2021/04/22 10:52:48;;;;;;;20.25;16.90;;;12.30;99.90;;;;;;5000653;28;20577;-78
2021/04/22 10:55:26;;;;;;;20.92;16.98;;;12.20;99.90;;;;;;4996282;28;20093;-76
2021/04/22 10:57:54;;;;;;;19.77;16.88;;;12.00;99.90;;;;;;5005110;28;20155;-76
2021/04/22 11:00:26;;;;;;;24.88;18.38;;;11.90;99.90;;;;;;5004660;28;20102;-76
2021/04/22 11:02:54;;;;;;;22.48;17.33;;;11.90;99.90;;;;;;5002537;28;20090;-77
2021/04/22 11:05:25;;;;;;;25.88;19.60;;;12.00;99.90;;;;;;4996744;28;20086;-73
2021/04/22 11:07:59;;;;;;;23.98;18.30;;;12.00;99.90;;;;;;4985048;28;20121;-73
2021/04/22 11:10:45;;;;;;;23.83;18.02;;;11.90;99.90;;;;;;4997356;28;20072;-75
2021/04/22 11:13:16;;;;;;;20.58;17.20;;;11.90;99.90;;;;;;5005176;28;20165;-74
2021/04/22 11:16:02;;;;;;;20.83;16.60;;;12.10;99.90;;;;;;5002133;28;20562;-74
2021/04/22 11:18:46;;;;;;;17.73;15.23;;;12.20;99.90;;;;;;4990008;28;20085;-74
2021/04/22 11:21:36;;;;;;;25.00;15.77;;;12.40;99.90;;;;;;5006553;28;20624;-74
2021/04/22 11:24:03;;;;;;;22.23;15.98;;;12.30;99.90;;;;;;5005334;28;20530;-77
2021/04/22 11:26:34;;;;;;;24.30;16.75;;;12.30;99.90;;;;;;4995675;28;20149;-74
2021/04/22 11:29:17;;;;;;;21.75;15.95;;;12.50;99.90;;;;;;5003738;28;20081;-76
2021/04/22 11:31:49;;;;;;;23.42;17.48;;;12.50;99.90;;;;;;4991320;28;20081;-74
2021/04/22 11:34:15;;;;;;;23.60;17.48;;;12.50;99.90;;;;;;4995654;28;20141;-74
2021/04/22 11:36:52;;;;;;;22.75;18.17;;;12.60;99.90;;;;;;4993061;28;20110;-75
2021/04/22 11:39:30;;;;;;;23.05;19.00;;;12.60;99.90;;;;;;5002088;28;20537;-75
2021/04/22 11:41:56;;;;;;;24.08;17.88;;;12.70;99.90;;;;;;5005678;28;20109;-75
2021/04/22 11:44:34;;;;;;;25.80;19.70;;;12.80;99.90;;;;;;5001737;28;20187;-75
2021/04/22 11:47:00;;;;;;;26.77;20.08;;;12.70;99.90;;;;;;4999243;28;20093;-74
2021/04/22 11:49:29;;;;;;;25.13;20.13;;;12.50;99.90;;;;;;5003984;28;20075;-75
2021/04/22 11:51:55;;;;;;;26.95;20.38;;;12.40;99.90;;;;;;4986785;28;20890;-74
2021/04/22 11:54:29;;;;;;;28.20;21.67;;;12.40;99.90;;;;;;5007622;28;20086;-74
2021/04/22 11:57:04;;;;;;;25.10;19.85;;;12.40;99.90;;;;;;5004861;28;20089;-74
2021/04/22 11:59:31;;;;;;;26.67;20.77;;;12.50;99.90;;;;;;5000324;28;20201;-75
2021/04/22 12:02:07;;;;;;;30.90;20.92;;;12.50;99.90;;;;;;5005270;28;20094;-74
2021/04/22 12:04:44;;;;;;;27.60;21.90;;;12.60;99.90;;;;;;5005271;28;20070;-73
2021/04/22 12:07:16;;;;;;;27.65;21.90;;;12.60;99.90;;;;;;4995266;28;20090;-73
2021/04/22 12:09:52;;;;;;;28.08;21.50;;;12.60;99.90;;;;;;4989847;28;20089;-73
2021/04/22 12:12:29;;;;;;;28.60;20.80;;;12.90;99.90;;;;;;4986382;28;20100;-72
2021/04/22 12:14:59;;;;;;;26.50;19.10;;;12.80;99.90;;;;;;4991411;28;20490;-73
2021/04/22 12:17:33;;;;;;;28.92;21.20;;;12.70;99.90;;;;;;4993642;28;20074;-73
2021/04/22 12:20:03;;;;;;;24.40;19.52;;;12.60;99.90;;;;;;5004122;28;20078;-73
2021/04/22 12:22:45;;;;;;;26.92;19.95;;;12.70;99.90;;;;;;4973948;28;20213;-73
2021/04/22 12:25:17;;;;;;;26.67;20.50;;;12.60;99.90;;;;;;4989817;28;20134;-73
2021/04/22 12:27:52;;;;;;;29.52;19.25;;;12.60;99.90;;;;;;4978962;28;20078;-73
2021/04/22 12:30:48;;;;;;;27.08;19.33;;;12.50;99.90;;;;;;5003089;28;20073;-73
2021/04/22 12:33:21;;;;;;;23.92;18.75;;;12.60;99.90;;;;;;4993844;28;20093;-74
2021/04/22 12:35:59;;;;;;;23.58;16.77;;;12.80;99.90;;;;;;4989868;28;20601;-74
2021/04/22 12:38:27;;;;;;;26.63;18.55;;;12.90;99.90;;;;;;4990573;28;20156;-73
2021/04/22 12:40:56;;;;;;;23.20;16.90;;;12.80;99.90;;;;;;4989060;28;20079;-73
2021/04/22 12:43:24;;;;;;;22.33;17.27;;;12.70;99.90;;;;;;4989510;28;20561;-74